Terminal Aerodrome Forecast
Issued by NWS Bismarck, ND

Home | Current Version | Previous Version | Graphics & Text | Print | Product List | Glossary On
Versions: 1 2 3 4 5 6 7 8 9 10 11 12 13 14 15
000
FTUS43 KBIS 140521
TAFBIS
TAF
KBIS 140521Z 1406/1506 09006KT P6SM SCT070 BKN110
     FM141200 02009KT P6SM VCSH SCT050 BKN100
     FM141900 35016G24KT P6SM SCT025 BKN150
     FM150000 33008KT P6SM FEW035 FEW250
     FM150300 29004KT P6SM SKC=

USA.gov is the U.S. government's official web portal to all federal, state and local government web resources and services.